createdAt,value
2018-05-23T00:00:17.487Z,1014.49
2018-05-23T00:01:17.430Z,1014.50
2018-05-23T00:02:17.372Z,1014.57
2018-05-23T00:03:17.311Z,1014.53
2018-05-23T00:04:17.252Z,1014.57
2018-05-23T00:05:17.193Z,1014.54
2018-05-23T00:06:17.131Z,1014.50
2018-05-23T00:07:17.074Z,1014.57
2018-05-23T00:08:17.013Z,1014.55
2018-05-23T00:09:16.954Z,1014.56
2018-05-23T00:10:16.901Z,1014.59
2018-05-23T00:11:16.837Z,1014.57
2018-05-23T00:12:16.777Z,1014.57
2018-05-23T00:13:16.716Z,1014.59
2018-05-23T00:14:16.656Z,1014.61
2018-05-23T00:15:16.599Z,1014.61
2018-05-23T00:16:16.537Z,1014.64
2018-05-23T00:17:16.479Z,1014.61
2018-05-23T00:18:16.422Z,1014.59
2018-05-23T00:19:16.358Z,1014.58
2018-05-23T00:20:16.299Z,1014.59
2018-05-23T00:21:16.238Z,1014.61
2018-05-23T00:22:16.180Z,1014.59
2018-05-23T00:23:16.120Z,1014.61
2018-05-23T00:24:16.061Z,1014.64
2018-05-23T00:25:16.005Z,1014.67
2018-05-23T00:26:15.938Z,1014.69
2018-05-23T00:27:15.881Z,1014.68
2018-05-23T00:28:15.831Z,1014.66
2018-05-23T00:29:15.763Z,1014.68
2018-05-23T00:30:15.705Z,1014.67
2018-05-23T00:31:15.641Z,1014.66
2018-05-23T00:32:15.582Z,1014.63
2018-05-23T00:33:15.523Z,1014.65
2018-05-23T00:34:15.465Z,1014.65
2018-05-23T00:35:15.408Z,1014.65
2018-05-23T00:36:15.346Z,1014.69
2018-05-23T00:37:15.289Z,1014.66
2018-05-23T00:38:15.224Z,1014.73
2018-05-23T00:39:15.165Z,1014.71
2018-05-23T00:40:15.105Z,1014.70
2018-05-23T00:41:15.043Z,1014.73
2018-05-23T00:42:14.988Z,1014.72
2018-05-23T00:43:14.928Z,1014.73
2018-05-23T00:44:14.867Z,1014.73
2018-05-23T00:45:14.815Z,1014.68
2018-05-23T00:46:14.748Z,1014.67
2018-05-23T00:47:14.687Z,1014.69
2018-05-23T00:48:14.642Z,1014.68
2018-05-23T00:49:14.569Z,1014.70
2018-05-23T00:50:14.653Z,1014.76
2018-05-23T00:51:14.445Z,1014.69
2018-05-23T00:52:14.383Z,1014.72
2018-05-23T00:53:14.332Z,1014.70
2018-05-23T00:54:14.270Z,1014.69
2018-05-23T00:55:14.214Z,1014.71
2018-05-23T00:56:14.151Z,1014.71
2018-05-23T00:57:14.090Z,1014.75
2018-05-23T00:58:14.029Z,1014.77
2018-05-23T00:59:13.969Z,1014.78
2018-05-23T01:00:13.909Z,1014.77
2018-05-23T01:01:13.849Z,1014.80
2018-05-23T01:02:13.798Z,1014.84
2018-05-23T01:03:13.732Z,1014.82
2018-05-23T01:04:13.675Z,1014.80
2018-05-23T01:05:13.608Z,1014.81
2018-05-23T01:06:13.553Z,1014.83
2018-05-23T01:07:13.491Z,1014.80
2018-05-23T01:08:13.435Z,1014.83
2018-05-23T01:09:13.386Z,1014.86
2018-05-23T01:10:13.310Z,1014.87
2018-05-23T01:11:13.250Z,1014.89
2018-05-23T01:12:13.190Z,1014.90
2018-05-23T01:13:13.134Z,1014.91
2018-05-23T01:14:13.076Z,1014.95
2018-05-23T01:15:13.013Z,1014.94
2018-05-23T01:16:12.954Z,1014.94
2018-05-23T01:17:12.916Z,1014.94
2018-05-23T01:18:12.837Z,1014.96
2018-05-23T01:19:12.771Z,1014.97
2018-05-23T01:20:12.713Z,1014.99
2018-05-23T01:21:12.653Z,1014.98
2018-05-23T01:22:12.589Z,1015.01
2018-05-23T01:23:12.532Z,1014.98
2018-05-23T01:24:12.469Z,1014.99
2018-05-23T01:25:12.410Z,1014.98
2018-05-23T01:26:12.351Z,1015.03
2018-05-23T01:27:12.291Z,1015.01
2018-05-23T01:28:12.233Z,1015.01
2018-05-23T01:29:12.171Z,1015.07
2018-05-23T01:30:12.111Z,1014.98
2018-05-23T01:31:12.052Z,1015.00
2018-05-23T01:32:11.983Z,1015.05
2018-05-23T01:33:11.932Z,1015.04
2018-05-23T01:34:11.869Z,1015.07
2018-05-23T01:35:11.811Z,1015.08
2018-05-23T01:36:11.749Z,1015.09
2018-05-23T01:37:11.687Z,1015.07
2018-05-23T01:38:11.634Z,1015.05
2018-05-23T01:39:11.572Z,1015.01
2018-05-23T01:40:11.509Z,1015.08
2018-05-23T01:41:11.449Z,1015.09
2018-05-23T01:42:11.387Z,1015.05
2018-05-23T01:43:11.327Z,1015.01
2018-05-23T01:44:11.269Z,1015.03
2018-05-23T01:45:11.209Z,1015.06
2018-05-23T01:46:11.146Z,1015.05
2018-05-23T01:47:11.090Z,1015.05
2018-05-23T01:48:11.027Z,1015.04
2018-05-23T01:49:10.967Z,1015.08
2018-05-23T01:50:10.903Z,1015.10
2018-05-23T01:51:10.844Z,1015.07
2018-05-23T01:52:10.788Z,1015.10
2018-05-23T01:53:10.728Z,1015.10
2018-05-23T01:54:10.662Z,1015.09
2018-05-23T01:55:10.604Z,1015.11
2018-05-23T01:56:10.543Z,1015.10
2018-05-23T01:57:10.482Z,1015.14
2018-05-23T01:58:10.420Z,1015.12
2018-05-23T01:59:10.362Z,1015.14
2018-05-23T02:00:10.303Z,1015.15
2018-05-23T02:01:10.240Z,1015.14
2018-05-23T02:02:10.179Z,1015.07
2018-05-23T02:03:10.119Z,1015.12
2018-05-23T02:04:10.057Z,1015.10
2018-05-23T02:05:10.000Z,1015.10
2018-05-23T02:06:09.936Z,1015.07
2018-05-23T02:07:09.877Z,1015.08
2018-05-23T02:08:09.817Z,1015.08
2018-05-23T02:09:09.758Z,1015.07
2018-05-23T02:10:09.701Z,1015.08
2018-05-23T02:11:09.637Z,1015.06
2018-05-23T02:12:09.576Z,1015.06
2018-05-23T02:13:09.517Z,1015.13
2018-05-23T02:14:09.453Z,1015.09
2018-05-23T02:15:09.394Z,1015.12
2018-05-23T02:16:09.332Z,1015.11
2018-05-23T02:17:09.275Z,1015.14
2018-05-23T02:18:09.217Z,1015.09
2018-05-23T02:19:09.151Z,1015.12
2018-05-23T02:20:09.093Z,1015.13
2018-05-23T02:21:09.032Z,1015.16
2018-05-23T02:22:08.973Z,1015.16
2018-05-23T02:23:08.910Z,1015.19
2018-05-23T02:24:08.848Z,1015.14
2018-05-23T02:25:08.798Z,1015.11
2018-05-23T02:26:08.724Z,1015.11
2018-05-23T02:27:08.665Z,1015.10
2018-05-23T02:28:08.607Z,1015.12
2018-05-23T02:29:08.544Z,1015.17
2018-05-23T02:30:08.484Z,1015.13
2018-05-23T02:31:08.424Z,1015.16
2018-05-23T02:32:08.369Z,1015.16
2018-05-23T02:33:08.302Z,1015.19
2018-05-23T02:34:08.240Z,1015.27
2018-05-23T02:35:08.179Z,1015.20
2018-05-23T02:36:08.119Z,1015.26
2018-05-23T02:37:08.058Z,1015.23
2018-05-23T02:38:07.999Z,1015.23
2018-05-23T02:39:07.946Z,1015.22
2018-05-23T02:40:07.884Z,1015.25
2018-05-23T02:41:07.817Z,1015.26
2018-05-23T02:42:07.761Z,1015.28
2018-05-23T02:43:07.702Z,1015.29
2018-05-23T02:44:07.634Z,1015.31
2018-05-23T02:45:07.576Z,1015.29
2018-05-23T02:46:07.516Z,1015.32
2018-05-23T02:47:07.487Z,1015.32
2018-05-23T02:48:07.388Z,1015.30
2018-05-23T02:49:07.331Z,1015.29
2018-05-23T02:50:07.268Z,1015.32
2018-05-23T02:51:07.210Z,1015.31
2018-05-23T02:52:07.150Z,1015.31
2018-05-23T02:53:07.088Z,1015.31
2018-05-23T02:54:07.021Z,1015.33
2018-05-23T02:55:06.962Z,1015.35
2018-05-23T02:56:06.904Z,1015.38
2018-05-23T02:57:06.844Z,1015.41
2018-05-23T02:58:06.780Z,1015.41
2018-05-23T02:59:06.724Z,1015.43
2018-05-23T03:00:06.660Z,1015.43
2018-05-23T03:01:06.601Z,1015.41
2018-05-23T03:02:06.536Z,1015.43
2018-05-23T03:03:06.548Z,1015.39
2018-05-23T03:04:06.421Z,1015.44
2018-05-23T03:05:06.365Z,1015.41
2018-05-23T03:06:06.289Z,1015.47
2018-05-23T03:07:06.233Z,1015.43
2018-05-23T03:08:06.175Z,1015.45
2018-05-23T03:09:06.108Z,1015.44
2018-05-23T03:10:06.051Z,1015.45
2018-05-23T03:11:05.993Z,1015.48
2018-05-23T03:12:05.928Z,1015.48
2018-05-23T03:13:05.867Z,1015.50
2018-05-23T03:14:05.809Z,1015.51
2018-05-23T03:15:05.748Z,1015.50
2018-05-23T03:16:05.686Z,1015.51
2018-05-23T03:17:05.622Z,1015.56
2018-05-23T03:18:05.557Z,1015.58
2018-05-23T03:19:05.500Z,1015.62
2018-05-23T03:20:05.437Z,1015.59
2018-05-23T03:21:05.383Z,1015.62
2018-05-23T03:22:05.329Z,1015.67
2018-05-23T03:23:05.256Z,1015.66
2018-05-23T03:24:05.198Z,1015.68
2018-05-23T03:25:05.139Z,1015.75
2018-05-23T03:26:05.088Z,1015.74
2018-05-23T03:27:05.013Z,1015.74
2018-05-23T03:28:04.955Z,1015.74
2018-05-23T03:29:04.891Z,1015.74
2018-05-23T03:30:04.830Z,1015.71
2018-05-23T03:31:04.782Z,1015.78
2018-05-23T03:32:04.704Z,1015.76
2018-05-23T03:33:04.649Z,1015.78
2018-05-23T03:34:04.593Z,1015.79
2018-05-23T03:35:04.524Z,1015.81
2018-05-23T03:36:04.467Z,1015.84
2018-05-23T03:37:04.405Z,1015.82
2018-05-23T03:38:04.341Z,1015.84
2018-05-23T03:39:04.281Z,1015.88
2018-05-23T03:40:04.220Z,1015.89
2018-05-23T03:41:04.159Z,1015.91
2018-05-23T03:42:04.096Z,1015.90
2018-05-23T03:43:04.038Z,1015.87
2018-05-23T03:44:03.976Z,1015.89
2018-05-23T03:45:03.916Z,1015.88
2018-05-23T03:46:03.855Z,1015.89
2018-05-23T03:47:03.797Z,1015.90
2018-05-23T03:48:03.738Z,1015.91
2018-05-23T03:49:03.672Z,1015.95
2018-05-23T03:50:03.610Z,1015.95
2018-05-23T03:51:03.549Z,1015.97
2018-05-23T03:52:03.488Z,1015.96
2018-05-23T03:53:03.426Z,1015.97
2018-05-23T03:54:03.928Z,1016.02
2018-05-23T03:55:03.315Z,1015.99
2018-05-23T03:56:03.246Z,1016.01
2018-05-23T03:57:03.186Z,1016.05
2018-05-23T03:58:03.121Z,1016.06
2018-05-23T03:59:03.060Z,1016.10
2018-05-23T04:00:03.005Z,1016.11
2018-05-23T04:01:02.941Z,1016.14
2018-05-23T04:02:02.875Z,1016.14
2018-05-23T04:03:02.820Z,1016.14
2018-05-23T04:04:02.761Z,1016.20
2018-05-23T04:05:02.702Z,1016.17
2018-05-23T04:06:02.636Z,1016.18
2018-05-23T04:07:02.575Z,1016.18
2018-05-23T04:08:02.515Z,1016.24
2018-05-23T04:09:02.455Z,1016.23
2018-05-23T04:10:02.389Z,1016.24
2018-05-23T04:11:02.323Z,1016.24
2018-05-23T04:12:02.273Z,1016.27
2018-05-23T04:13:02.207Z,1016.25
2018-05-23T04:14:02.148Z,1016.27
2018-05-23T04:15:02.095Z,1016.27
2018-05-23T04:16:02.026Z,1016.25
2018-05-23T04:17:01.974Z,1016.27
2018-05-23T04:18:01.909Z,1016.33
2018-05-23T04:19:01.844Z,1016.28
2018-05-23T04:20:01.783Z,1016.34
2018-05-23T04:21:01.726Z,1016.34
2018-05-23T04:22:01.658Z,1016.34
2018-05-23T04:23:01.598Z,1016.38
2018-05-23T04:24:01.542Z,1016.37
2018-05-23T04:25:01.588Z,1016.37
2018-05-23T04:26:01.419Z,1016.43
2018-05-23T04:27:01.360Z,1016.40
2018-05-23T04:28:01.295Z,1016.44
2018-05-23T04:29:01.236Z,1016.43
2018-05-23T04:30:01.181Z,1016.43
2018-05-23T04:31:01.114Z,1016.44
2018-05-23T04:32:01.050Z,1016.42
2018-05-23T04:33:00.995Z,1016.47
2018-05-23T04:34:00.929Z,1016.47
2018-05-23T04:35:00.873Z,1016.49
2018-05-23T04:36:00.808Z,1016.48
2018-05-23T04:37:00.742Z,1016.45
2018-05-23T04:38:00.688Z,1016.47
2018-05-23T04:39:00.636Z,1016.52
2018-05-23T04:40:00.571Z,1016.49
2018-05-23T04:41:00.510Z,1016.48
2018-05-23T04:42:00.448Z,1016.56
2018-05-23T04:43:00.379Z,1016.54
2018-05-23T04:44:00.330Z,1016.57
2018-05-23T04:45:00.260Z,1016.59
2018-05-23T04:46:00.200Z,1016.64
2018-05-23T04:47:00.143Z,1016.60
2018-05-23T04:48:00.080Z,1016.68
2018-05-23T04:49:00.023Z,1016.67
2018-05-23T04:49:59.962Z,1016.68
2018-05-23T04:50:59.907Z,1016.64
2018-05-23T04:51:59.840Z,1016.70
2018-05-23T04:52:59.780Z,1016.64
2018-05-23T04:53:59.722Z,1016.69
2018-05-23T04:54:59.655Z,1016.73
2018-05-23T04:55:59.595Z,1016.70
2018-05-23T04:56:59.534Z,1016.72
2018-05-23T04:57:59.475Z,1016.73
2018-05-23T04:58:59.415Z,1016.73
2018-05-23T04:59:59.352Z,1016.75
2018-05-23T05:00:59.295Z,1016.77
2018-05-23T05:01:59.231Z,1016.82
2018-05-23T05:02:59.176Z,1016.82
2018-05-23T05:03:59.113Z,1016.86
2018-05-23T05:04:59.052Z,1016.89
2018-05-23T05:05:58.991Z,1016.87
2018-05-23T05:06:58.929Z,1016.94
2018-05-23T05:07:58.870Z,1016.91
2018-05-23T05:08:58.813Z,1016.96
2018-05-23T05:09:58.818Z,1016.94
2018-05-23T05:10:58.692Z,1016.92
2018-05-23T05:11:58.631Z,1016.95
2018-05-23T05:12:58.573Z,1016.99
2018-05-23T05:13:58.510Z,1017.06
2018-05-23T05:14:58.451Z,1017.02
2018-05-23T05:15:58.388Z,1017.05
2018-05-23T05:16:58.336Z,1017.00
2018-05-23T05:17:58.276Z,1017.04
2018-05-23T05:18:58.217Z,1017.06
2018-05-23T05:19:58.163Z,1017.08
2018-05-23T05:20:58.097Z,1017.07
2018-05-23T05:21:58.042Z,1017.06
2018-05-23T05:22:57.983Z,1017.06
2018-05-23T05:23:57.919Z,1017.12
2018-05-23T05:24:57.883Z,1017.11
2018-05-23T05:25:57.804Z,1017.10
2018-05-23T05:26:57.744Z,1017.12
2018-05-23T05:27:57.684Z,1017.14
2018-05-23T05:28:57.627Z,1017.14
2018-05-23T05:29:57.597Z,1017.17
2018-05-23T05:30:57.512Z,1017.20
2018-05-23T05:31:57.451Z,1017.21
2018-05-23T05:32:57.395Z,1017.23
2018-05-23T05:33:57.336Z,1017.21
2018-05-23T05:34:57.273Z,1017.23
2018-05-23T05:35:57.216Z,1017.27
2018-05-23T05:36:57.159Z,1017.28
2018-05-23T05:37:57.104Z,1017.26
2018-05-23T05:38:57.044Z,1017.31
2018-05-23T05:39:56.977Z,1017.30
2018-05-23T05:40:56.919Z,1017.32
2018-05-23T05:41:56.859Z,1017.33
2018-05-23T05:42:56.802Z,1017.34
2018-05-23T05:43:56.747Z,1017.37
2018-05-23T05:44:56.684Z,1017.39
2018-05-23T05:45:56.622Z,1017.47
2018-05-23T05:46:56.571Z,1017.42
2018-05-23T05:47:56.514Z,1017.47
2018-05-23T05:48:56.446Z,1017.44
2018-05-23T05:49:56.395Z,1017.41
2018-05-23T05:50:56.328Z,1017.46
2018-05-23T05:51:56.265Z,1017.49
2018-05-23T05:52:56.207Z,1017.44
2018-05-23T05:53:56.151Z,1017.45
2018-05-23T05:54:56.098Z,1017.44
2018-05-23T05:55:56.032Z,1017.44
2018-05-23T05:56:55.978Z,1017.51
2018-05-23T05:57:55.916Z,1017.49
2018-05-23T05:58:55.854Z,1017.53
2018-05-23T05:59:55.796Z,1017.51
2018-05-23T06:00:55.738Z,1017.52
2018-05-23T06:01:55.764Z,1017.52
2018-05-23T06:02:55.620Z,1017.55
2018-05-23T06:03:55.565Z,1017.58
2018-05-23T06:04:55.507Z,1017.61
2018-05-23T06:05:55.466Z,1017.61
2018-05-23T06:06:55.382Z,1017.61
2018-05-23T06:07:55.329Z,1017.66
2018-05-23T06:08:55.272Z,1017.65
2018-05-23T06:09:55.268Z,1017.66
2018-05-23T06:10:55.153Z,1017.67
2018-05-23T06:11:55.090Z,1017.70
2018-05-23T06:12:55.031Z,1017.71
2018-05-23T06:13:54.976Z,1017.74
2018-05-23T06:14:54.915Z,1017.73
2018-05-23T06:15:54.855Z,1017.75
2018-05-23T06:16:54.799Z,1017.74
2018-05-23T06:17:54.745Z,1017.76
2018-05-23T06:18:54.675Z,1017.74
2018-05-23T06:19:54.620Z,1017.76
2018-05-23T06:20:54.561Z,1017.78
2018-05-23T06:21:54.504Z,1017.78
2018-05-23T06:22:54.447Z,1017.78
2018-05-23T06:23:54.386Z,1017.85
2018-05-23T06:24:54.327Z,1017.75
2018-05-23T06:25:54.272Z,1017.74
2018-05-23T06:26:54.212Z,1017.75
2018-05-23T06:27:54.152Z,1017.78
2018-05-23T06:28:54.098Z,1017.77
2018-05-23T06:29:54.038Z,1017.77
2018-05-23T06:30:53.978Z,1017.81
2018-05-23T06:31:53.914Z,1017.84
2018-05-23T06:32:53.861Z,1017.84
2018-05-23T06:33:53.804Z,1017.83
2018-05-23T06:34:53.747Z,1017.88
2018-05-23T06:35:53.693Z,1017.93
2018-05-23T06:36:53.650Z,1017.94
2018-05-23T06:37:53.652Z,1017.94
2018-05-23T06:38:53.510Z,1017.96
2018-05-23T06:39:53.457Z,1017.98
2018-05-23T06:40:53.397Z,1017.98
2018-05-23T06:41:53.335Z,1017.99
2018-05-23T06:42:53.275Z,1018.01
2018-05-23T06:43:53.219Z,1018.04
2018-05-23T06:44:53.162Z,1018.05
2018-05-23T06:45:53.110Z,1018.06
2018-05-23T06:46:53.052Z,1018.07
2018-05-23T06:47:52.989Z,1018.08
2018-05-23T06:48:52.932Z,1018.06
2018-05-23T06:49:52.874Z,1018.08
2018-05-23T06:50:52.811Z,1018.07
2018-05-23T06:51:52.756Z,1018.06
2018-05-23T06:52:52.699Z,1018.12
2018-05-23T06:53:52.644Z,1018.11
2018-05-23T06:54:52.587Z,1018.13
2018-05-23T06:55:52.523Z,1018.12
2018-05-23T06:56:52.466Z,1018.05
2018-05-23T06:57:52.412Z,1018.10
2018-05-23T06:58:52.351Z,1018.12
2018-05-23T06:59:52.296Z,1018.07
2018-05-23T07:00:52.243Z,1018.11
2018-05-23T07:01:52.176Z,1018.09
2018-05-23T07:02:52.118Z,1018.09
2018-05-23T07:03:52.063Z,1018.09
2018-05-23T07:04:52.005Z,1018.07
2018-05-23T07:05:51.961Z,1018.07
2018-05-23T07:06:51.892Z,1018.08
2018-05-23T07:07:51.833Z,1018.04
2018-05-23T07:08:51.777Z,1018.07
2018-05-23T07:09:51.715Z,1018.06
2018-05-23T07:10:51.658Z,1018.06
2018-05-23T07:11:51.604Z,1018.09
2018-05-23T07:12:51.545Z,1018.08
2018-05-23T07:13:51.483Z,1018.10
2018-05-23T07:14:51.429Z,1018.10
2018-05-23T07:15:51.374Z,1018.06
2018-05-23T07:16:51.313Z,1018.11
2018-05-23T07:17:51.370Z,1018.10
2018-05-23T07:18:51.988Z,1018.16
2018-05-23T07:19:52.073Z,1018.16
2018-05-23T07:20:51.200Z,1018.14
2018-05-23T07:21:51.297Z,1018.15
2018-05-23T07:22:51.109Z,1018.14
2018-05-23T07:23:51.300Z,1018.17
2018-05-23T07:24:51.176Z,1018.20
2018-05-23T07:25:50.909Z,1018.18
2018-05-23T07:26:51.131Z,1018.18
2018-05-23T07:27:51.010Z,1018.20
2018-05-23T07:28:50.646Z,1018.18
2018-05-23T07:29:50.570Z,1018.21
2018-05-23T07:30:50.517Z,1018.21
2018-05-23T07:31:50.597Z,1018.21
2018-05-23T07:32:50.412Z,1018.16
2018-05-23T07:33:50.395Z,1018.19
2018-05-23T07:34:50.299Z,1018.21
2018-05-23T07:35:50.227Z,1018.19
2018-05-23T07:36:50.177Z,1018.20
2018-05-23T07:37:50.124Z,1018.22
2018-05-23T07:38:50.070Z,1018.24
2018-05-23T07:39:50.012Z,1018.28
2018-05-23T07:40:49.943Z,1018.24
2018-05-23T07:41:49.897Z,1018.28
2018-05-23T07:42:49.827Z,1018.28
2018-05-23T07:43:49.778Z,1018.24
2018-05-23T07:44:49.743Z,1018.20
2018-05-23T07:45:49.740Z,1018.18
2018-05-23T07:46:49.621Z,1018.22
2018-05-23T07:47:49.539Z,1018.25
2018-05-23T07:48:49.478Z,1018.15
2018-05-23T07:49:49.435Z,1018.19
2018-05-23T07:50:49.370Z,1018.18
2018-05-23T07:51:49.319Z,1018.24
2018-05-23T07:52:49.257Z,1018.23
2018-05-23T07:53:49.197Z,1018.23
2018-05-23T07:54:49.157Z,1018.23
2018-05-23T07:55:49.084Z,1018.23
2018-05-23T07:56:49.025Z,1018.21
2018-05-23T07:57:48.972Z,1018.26
2018-05-23T07:58:48.916Z,1018.26
2018-05-23T07:59:48.856Z,1018.26
2018-05-23T08:00:48.801Z,1018.30
2018-05-23T08:01:48.743Z,1018.26
2018-05-23T08:02:48.687Z,1018.20
2018-05-23T08:03:48.632Z,1018.24
2018-05-23T08:04:48.576Z,1018.24
2018-05-23T08:05:48.516Z,1018.29
2018-05-23T08:06:48.464Z,1018.29
2018-05-23T08:07:48.412Z,1018.28
2018-05-23T08:08:48.357Z,1018.31
2018-05-23T08:09:48.293Z,1018.31
2018-05-23T08:10:48.237Z,1018.31
2018-05-23T08:11:48.199Z,1018.31
2018-05-23T08:12:48.122Z,1018.32
2018-05-23T08:13:48.063Z,1018.33
2018-05-23T08:14:48.005Z,1018.34
2018-05-23T08:15:47.954Z,1018.37
2018-05-23T08:16:47.897Z,1018.38
2018-05-23T08:17:47.851Z,1018.40
2018-05-23T08:18:47.786Z,1018.38
2018-05-23T08:19:47.724Z,1018.33
2018-05-23T08:20:47.732Z,1018.36
2018-05-23T08:21:47.614Z,1018.36
2018-05-23T08:22:47.564Z,1018.38
2018-05-23T08:23:47.502Z,1018.37
2018-05-23T08:24:47.444Z,1018.31
2018-05-23T08:25:47.388Z,1018.33
2018-05-23T08:26:47.330Z,1018.34
2018-05-23T08:27:47.279Z,1018.31
2018-05-23T08:28:47.220Z,1018.34
2018-05-23T08:29:47.222Z,1018.35
2018-05-23T08:30:47.149Z,1018.31
2018-05-23T08:31:47.052Z,1018.37
2018-05-23T08:32:46.994Z,1018.37
2018-05-23T08:33:46.936Z,1018.35
2018-05-23T08:34:46.881Z,1018.36
2018-05-23T08:35:46.842Z,1018.39
2018-05-23T08:36:46.771Z,1018.38
2018-05-23T08:37:55.370Z,1018.38
2018-05-23T08:39:41.015Z,1018.40
2018-05-23T08:40:48.577Z,1018.37
2018-05-23T08:42:42.884Z,1018.42
2018-05-23T08:43:34.158Z,1018.41
2018-05-23T08:45:28.471Z,1018.41
2018-05-23T08:46:28.381Z,1018.43
2018-05-23T08:48:23.195Z,1018.40
2018-05-23T08:49:31.779Z,1018.43
2018-05-23T08:51:17.417Z,1018.42
2018-05-23T08:52:24.976Z,1018.38
2018-05-23T08:54:19.269Z,1018.41
2018-05-23T08:55:10.562Z,1018.43
2018-05-23T08:57:03.983Z,1018.43
2018-05-23T08:58:03.794Z,1018.49
2018-05-23T08:59:57.122Z,1018.51
2018-05-23T09:00:57.032Z,1018.46
2018-05-23T09:02:51.342Z,1018.47
2018-05-23T09:03:51.254Z,1018.49
2018-05-23T09:05:46.166Z,1018.50
2018-05-23T09:06:45.469Z,1018.52
2018-05-23T09:08:39.785Z,1018.51
2018-05-23T09:09:39.698Z,1018.56
2018-05-23T09:11:33.026Z,1018.52
2018-05-23T09:12:32.992Z,1018.56
2018-05-23T09:14:27.259Z,1018.54
2018-05-23T09:15:27.156Z,1018.58
2018-05-23T09:17:21.453Z,1018.59
2018-05-23T09:18:21.372Z,1018.62
2018-05-23T09:20:15.677Z,1018.67
2018-05-23T09:21:15.589Z,1018.69
2018-05-23T09:23:09.902Z,1018.67
2018-05-23T09:24:12.468Z,1018.76
2018-05-23T09:26:03.138Z,1018.73
2018-05-23T09:27:03.048Z,1018.69
2018-05-23T09:28:56.415Z,1018.74
2018-05-23T09:29:56.308Z,1018.76
2018-05-23T09:31:50.633Z,1018.75
2018-05-23T09:32:50.516Z,1018.79
2018-05-23T09:34:44.839Z,1018.79
2018-05-23T09:35:44.737Z,1018.82
2018-05-23T09:37:39.041Z,1018.80
2018-05-23T09:38:38.952Z,1018.77
2018-05-23T09:40:32.269Z,1018.79
2018-05-23T09:41:32.187Z,1018.79
2018-05-23T09:43:25.648Z,1018.81
2018-05-23T09:44:25.438Z,1018.82
2018-05-23T09:46:18.935Z,1018.80
2018-05-23T09:47:18.843Z,1018.83
2018-05-23T09:49:13.148Z,1018.88
2018-05-23T09:50:13.064Z,1018.83
2018-05-23T09:52:08.351Z,1018.83
2018-05-23T09:53:08.270Z,1018.80
2018-05-23T09:55:01.628Z,1018.81
2018-05-23T09:56:01.507Z,1018.77
2018-05-23T09:57:54.828Z,1018.83
2018-05-23T09:58:54.744Z,1018.85
2018-05-23T09:59:54.683Z,1018.85
2018-05-23T10:00:54.625Z,1018.87
2018-05-23T10:01:54.568Z,1018.88
2018-05-23T10:02:54.518Z,1018.89
2018-05-23T10:03:54.473Z,1018.89
2018-05-23T10:04:54.405Z,1018.83
2018-05-23T10:05:54.347Z,1018.87
2018-05-23T10:06:54.292Z,1018.87
2018-05-23T10:07:54.236Z,1018.87
2018-05-23T10:08:54.177Z,1018.89
2018-05-23T10:09:54.129Z,1018.88
2018-05-23T10:10:54.097Z,1018.90
2018-05-23T10:11:54.015Z,1018.89
2018-05-23T10:12:53.962Z,1018.91
2018-05-23T10:13:53.905Z,1018.90
2018-05-23T10:14:53.847Z,1018.93
2018-05-23T10:15:53.792Z,1018.90
2018-05-23T10:16:53.769Z,1018.94
2018-05-23T10:17:53.682Z,1018.91
2018-05-23T10:18:53.628Z,1018.92
2018-05-23T10:19:53.585Z,1018.94
2018-05-23T10:20:53.517Z,1018.95
2018-05-23T10:21:53.465Z,1018.97
2018-05-23T10:22:53.410Z,1018.93
2018-05-23T10:23:53.355Z,1018.95
2018-05-23T10:24:53.313Z,1018.97
2018-05-23T10:25:53.250Z,1018.99
2018-05-23T10:26:53.197Z,1019.00
2018-05-23T10:27:53.132Z,1018.95
2018-05-23T10:28:53.078Z,1018.90
2018-05-23T10:29:53.019Z,1018.94
2018-05-23T10:30:52.966Z,1018.94
2018-05-23T10:31:52.913Z,1018.91
2018-05-23T10:32:52.855Z,1018.93
2018-05-23T10:33:52.804Z,1018.92
2018-05-23T10:34:52.751Z,1018.93
2018-05-23T10:35:52.693Z,1018.95
2018-05-23T10:36:52.639Z,1018.98
2018-05-23T10:37:52.590Z,1018.96
2018-05-23T10:38:52.539Z,1018.92
2018-05-23T10:39:52.476Z,1019.01
2018-05-23T10:40:52.419Z,1018.97
2018-05-23T10:41:52.373Z,1019.08
2018-05-23T10:42:52.313Z,1019.04
2018-05-23T10:43:52.254Z,1019.04
2018-05-23T10:44:52.204Z,1019.05
2018-05-23T10:45:52.151Z,1019.00
2018-05-23T10:46:52.088Z,1018.98
2018-05-23T10:47:52.038Z,1019.01
2018-05-23T10:48:51.980Z,1018.99
2018-05-23T10:49:51.945Z,1018.96
2018-05-23T10:50:51.895Z,1018.91
2018-05-23T10:51:51.832Z,1019.00
2018-05-23T10:52:51.784Z,1018.97
2018-05-23T10:53:51.712Z,1018.98
2018-05-23T10:54:51.663Z,1019.01
2018-05-23T10:55:51.626Z,1019.06
2018-05-23T10:56:51.553Z,1019.03
2018-05-23T10:57:51.487Z,1019.05
2018-05-23T10:58:51.456Z,1019.05
2018-05-23T10:59:51.404Z,1019.08
2018-05-23T11:00:51.319Z,1019.00
2018-05-23T11:01:51.266Z,1018.98
2018-05-23T11:02:51.303Z,1018.99
2018-05-23T11:03:51.166Z,1019.03
2018-05-23T11:04:51.102Z,1019.01
2018-05-23T11:05:51.112Z,1019.04
2018-05-23T11:06:51.004Z,1019.02
2018-05-23T11:07:50.952Z,1019.06
2018-05-23T11:08:50.912Z,1019.13
2018-05-23T11:09:50.846Z,1019.17
2018-05-23T11:10:50.787Z,1019.18
2018-05-23T11:11:50.736Z,1019.20
2018-05-23T11:12:50.676Z,1019.20
2018-05-23T11:13:50.633Z,1019.27
2018-05-23T11:14:50.594Z,1019.30
2018-05-23T11:15:50.520Z,1020.04
2018-05-23T11:16:50.471Z,1020.17
2018-05-23T11:17:50.419Z,1020.20
2018-05-23T11:18:50.371Z,1020.26
2018-05-23T11:19:50.313Z,1020.29
2018-05-23T11:20:50.261Z,1020.31
2018-05-23T11:21:50.228Z,1020.26
2018-05-23T11:22:50.164Z,1020.28
2018-05-23T11:23:50.136Z,1020.32
2018-05-23T11:24:50.063Z,1020.35
2018-05-23T11:25:50.008Z,1020.31
2018-05-23T11:26:49.963Z,1020.34
2018-05-23T11:27:49.934Z,1020.33
2018-05-23T11:28:49.868Z,1020.38
2018-05-23T11:29:49.893Z,1020.45
2018-05-23T11:30:49.777Z,1020.49
2018-05-23T11:31:49.718Z,1020.48
2018-05-23T11:32:49.673Z,1020.43
2018-05-23T11:33:49.622Z,1020.44
2018-05-23T11:34:49.609Z,1020.43
2018-05-23T11:35:49.541Z,1020.47
2018-05-23T11:36:49.480Z,1020.50
2018-05-23T11:37:49.438Z,1020.42
2018-05-23T11:38:49.395Z,1020.47
2018-05-23T11:39:49.377Z,1020.44
2018-05-23T11:40:49.295Z,1020.37
2018-05-23T11:41:49.265Z,1020.35
2018-05-23T11:42:49.204Z,1020.27
2018-05-23T11:43:49.159Z,1020.31
2018-05-23T11:44:49.114Z,1020.37
2018-05-23T11:45:49.069Z,1020.36
2018-05-23T11:46:49.027Z,1020.39
2018-05-23T11:47:48.982Z,1020.37
2018-05-23T11:48:48.937Z,1020.40
2018-05-23T11:49:48.894Z,1020.36
2018-05-23T11:50:48.852Z,1020.40
2018-05-23T11:51:48.807Z,1020.37
2018-05-23T11:52:48.761Z,1020.41
2018-05-23T11:53:48.715Z,1020.43
2018-05-23T11:54:48.667Z,1020.45
2018-05-23T11:55:48.624Z,1020.43
2018-05-23T11:56:48.593Z,1020.47
2018-05-23T11:57:48.542Z,1020.45
2018-05-23T11:58:48.501Z,1020.50
2018-05-23T11:59:48.458Z,1020.43
2018-05-23T12:00:48.413Z,1020.43
2018-05-23T12:01:48.375Z,1020.41
2018-05-23T12:02:48.323Z,1020.29
2018-05-23T12:03:48.283Z,1020.38
2018-05-23T12:04:48.291Z,1020.30
2018-05-23T12:05:48.197Z,1020.09
2018-05-23T12:06:48.157Z,1020.23
2018-05-23T12:07:48.115Z,1020.37
2018-05-23T12:08:48.070Z,1020.43
2018-05-23T12:09:48.028Z,1020.45
2018-05-23T12:10:47.988Z,1020.42
2018-05-23T12:11:47.949Z,1020.41
2018-05-23T12:12:47.902Z,1020.41
2018-05-23T12:13:47.861Z,1020.42
2018-05-23T12:14:47.820Z,1020.40
2018-05-23T12:15:47.774Z,1020.41
2018-05-23T12:16:47.738Z,1020.32
2018-05-23T12:17:47.688Z,1020.36
2018-05-23T12:18:47.648Z,1020.52
2018-05-23T12:19:47.608Z,1020.56
2018-05-23T12:20:47.563Z,1020.69
2018-05-23T12:21:47.522Z,1020.80
2018-05-23T12:22:47.478Z,1020.82
2018-05-23T12:23:47.440Z,1020.82
2018-05-23T12:24:47.397Z,1020.90
2018-05-23T12:25:47.359Z,1020.90
2018-05-23T12:26:47.313Z,1021.00
2018-05-23T12:27:47.269Z,1021.07
2018-05-23T12:28:47.300Z,1021.14
2018-05-23T12:29:47.188Z,1021.13